createdAt,value
2023-04-15T00:00:39.324Z,485.8333
2023-04-15T00:01:43.276Z,485.3333
2023-04-15T00:02:47.318Z,481.7500
2023-04-15T00:03:51.460Z,482.5833
2023-04-15T00:04:55.711Z,487.8333
2023-04-15T00:05:59.577Z,484.6667
2023-04-15T00:07:03.699Z,487.0000
2023-04-15T00:08:07.584Z,486.2500
2023-04-15T00:09:11.469Z,489.5833
2023-04-15T00:10:15.365Z,489.7500
2023-04-15T00:11:19.269Z,489.2500
2023-04-15T00:12:23.155Z,487.0833
2023-04-15T00:13:27.055Z,484.8333
2023-04-15T00:14:31.170Z,487.0000
2023-04-15T00:15:35.064Z,486.8333
2023-04-15T00:16:39.072Z,488.6667
2023-04-15T00:17:43.015Z,491.3333
2023-04-15T00:18:46.914Z,489.6667
2023-04-15T00:19:50.783Z,489.1667
2023-04-15T00:20:54.692Z,489.9167
2023-04-15T00:21:58.816Z,491.5000
2023-04-15T00:23:02.684Z,488.2500
2023-04-15T00:24:06.557Z,485.8333
2023-04-15T00:25:10.479Z,486.5833
2023-04-15T00:26:14.377Z,485.2500
2023-04-15T00:27:18.255Z,482.5000
2023-04-15T00:28:22.141Z,482.2500
2023-04-15T00:29:26.051Z,483.4167
2023-04-15T00:30:29.959Z,484.6667
2023-04-15T00:31:33.972Z,484.6667
2023-04-15T00:32:37.926Z,486.3333
2023-04-15T00:33:41.783Z,485.6667
2023-04-15T00:34:45.924Z,484.0833
2023-04-15T00:35:49.805Z,484.7500
2023-04-15T00:36:53.933Z,484.2500
2023-04-15T00:37:57.809Z,483.5000
2023-04-15T00:39:01.843Z,484.9167
2023-04-15T00:40:05.821Z,487.1667
2023-04-15T00:41:09.705Z,486.4167
2023-04-15T00:42:13.605Z,488.6667
2023-04-15T00:43:17.487Z,490.8333
2023-04-15T00:44:21.608Z,495.0833
2023-04-15T00:45:25.470Z,493.3333
2023-04-15T00:46:29.381Z,492.0833
2023-04-15T00:47:33.276Z,490.0000
2023-04-15T00:48:37.167Z,490.5833
2023-04-15T00:49:41.044Z,490.9167
2023-04-15T00:50:44.968Z,493.1667
2023-04-15T00:51:48.839Z,495.5833
2023-04-15T00:52:52.753Z,492.1667
2023-04-15T00:53:56.627Z,491.5000
2023-04-15T00:55:00.775Z,492.5000
2023-04-15T00:56:04.681Z,496.1667
2023-04-15T00:57:08.561Z,497.6667
2023-04-15T00:58:12.464Z,498.8333
2023-04-15T00:59:16.342Z,497.5833
2023-04-15T01:00:20.250Z,498.0833
2023-04-15T01:01:24.466Z,496.3333
2023-04-15T01:02:28.519Z,492.4167
2023-04-15T01:03:32.652Z,490.3333
2023-04-15T01:04:36.848Z,489.0833
2023-04-15T01:05:40.758Z,490.5000
2023-04-15T01:06:41.199Z,490.0000
2023-04-15T01:07:45.073Z,491.0000
2023-04-15T01:08:48.956Z,492.2500
2023-04-15T01:09:52.841Z,489.3333
2023-04-15T01:10:56.736Z,489.0833
2023-04-15T01:12:00.624Z,487.5833
2023-04-15T01:13:04.535Z,489.4167
2023-04-15T01:14:08.418Z,490.5000
2023-04-15T01:15:12.333Z,490.1667
2023-04-15T01:16:16.269Z,491.6667
2023-04-15T01:17:20.191Z,489.5000
2023-04-15T01:18:24.052Z,489.5833
2023-04-15T01:19:27.952Z,492.0000
2023-04-15T01:20:31.833Z,493.0000
2023-04-15T01:21:35.979Z,494.5000
2023-04-15T01:22:39.867Z,497.1667
2023-04-15T01:23:43.759Z,495.3333
2023-04-15T01:24:47.649Z,497.3333
2023-04-15T01:25:51.543Z,497.1667
2023-04-15T01:26:55.447Z,493.5000
2023-04-15T01:27:59.337Z,492.6667
2023-04-15T01:29:03.241Z,492.9167
2023-04-15T01:30:07.116Z,493.0833
2023-04-15T01:31:11.089Z,493.5000
2023-04-15T01:32:15.007Z,493.0833
2023-04-15T01:33:18.889Z,491.2500
2023-04-15T01:34:22.783Z,489.1667
2023-04-15T01:35:26.664Z,490.5000
2023-04-15T01:36:30.573Z,493.9167
2023-04-15T01:37:34.697Z,494.6667
2023-04-15T01:38:38.587Z,491.6667
2023-04-15T01:39:42.478Z,491.8333
2023-04-15T01:40:46.382Z,492.9167
2023-04-15T01:41:50.491Z,493.0833
2023-04-15T01:42:54.401Z,492.0833
2023-04-15T01:43:58.278Z,490.8333
2023-04-15T01:45:02.200Z,488.3333
2023-04-15T01:46:06.070Z,491.2500
2023-04-15T01:47:10.191Z,491.4167
2023-04-15T01:48:14.092Z,489.5833
2023-04-15T01:49:17.985Z,490.6667
2023-04-15T01:50:21.888Z,493.0000
2023-04-15T01:51:25.761Z,489.7500
2023-04-15T01:52:29.903Z,490.8333
2023-04-15T01:53:33.786Z,494.5000
2023-04-15T01:54:37.714Z,494.2500
2023-04-15T01:55:41.589Z,492.6667
2023-04-15T01:56:41.927Z,490.0000
2023-04-15T01:57:45.818Z,491.3333
2023-04-15T01:58:49.726Z,488.4167
2023-04-15T01:59:53.612Z,490.0000
2023-04-15T02:00:57.586Z,491.6667
2023-04-15T02:02:01.462Z,493.6667
2023-04-15T02:03:05.577Z,492.7500
2023-04-15T02:04:05.822Z,493.1818
2023-04-15T02:06:14.427Z,491.5833
2023-04-15T02:06:14.427Z,492.4000
2023-04-15T02:07:18.590Z,494.4167
2023-04-15T02:08:23.007Z,496.4167
2023-04-15T02:09:26.912Z,498.5000
2023-04-15T02:10:31.687Z,499.0000
2023-04-15T02:11:35.568Z,497.3333
2023-04-15T02:12:39.454Z,495.2500
2023-04-15T02:13:43.373Z,492.6667
2023-04-15T02:14:47.262Z,494.0000
2023-04-15T02:15:51.150Z,494.0833
2023-04-15T02:16:55.287Z,494.8333
2023-04-15T02:17:59.204Z,495.5833
2023-04-15T02:19:03.399Z,493.0833
2023-04-15T02:20:07.247Z,494.8333
2023-04-15T02:21:11.110Z,499.3333
2023-04-15T02:22:14.993Z,498.5833
2023-04-15T02:23:18.891Z,498.0833
2023-04-15T02:24:22.807Z,499.2500
2023-04-15T02:25:26.689Z,499.4167
2023-04-15T02:26:30.600Z,500.5000
2023-04-15T02:27:34.508Z,499.0833
2023-04-15T02:28:38.421Z,499.0833
2023-04-15T02:29:42.303Z,498.5000
2023-04-15T02:30:46.189Z,497.9167
2023-04-15T02:31:50.125Z,495.2500
2023-04-15T02:32:54.058Z,494.0000
2023-04-15T02:33:57.948Z,496.6667
2023-04-15T02:35:01.854Z,496.1667
2023-04-15T02:36:05.736Z,497.0833
2023-04-15T02:37:06.147Z,498.1818
2023-04-15T02:38:10.031Z,501.0000
2023-04-15T02:39:13.917Z,499.2500
2023-04-15T02:40:17.805Z,501.0000
2023-04-15T02:41:21.705Z,500.4167
2023-04-15T02:42:25.614Z,502.0000
2023-04-15T02:43:29.501Z,498.1667
2023-04-15T02:44:33.627Z,501.5833
2023-04-15T02:45:37.563Z,500.0833
2023-04-15T02:46:41.691Z,502.3333
2023-04-15T02:47:45.590Z,502.8333
2023-04-15T02:48:49.463Z,501.1667
2023-04-15T02:49:53.350Z,500.5833
2023-04-15T02:50:57.230Z,496.5833
2023-04-15T02:52:01.149Z,496.8333
2023-04-15T02:53:05.026Z,497.1667
2023-04-15T02:54:08.929Z,498.0833
2023-04-15T02:55:12.866Z,502.2500
2023-04-15T02:56:16.713Z,501.0833
2023-04-15T02:57:20.621Z,501.1667
2023-04-15T02:58:24.507Z,500.6667
2023-04-15T02:59:28.735Z,500.5833
2023-04-15T03:00:32.636Z,501.4167
2023-04-15T03:01:36.796Z,501.0833
2023-04-15T03:02:40.737Z,500.9167
2023-04-15T03:03:44.742Z,498.3333
2023-04-15T03:04:48.710Z,497.1667
2023-04-15T03:05:52.618Z,500.5833
2023-04-15T03:06:56.478Z,497.6667
2023-04-15T03:08:00.379Z,497.8333
2023-04-15T03:09:04.278Z,497.6667
2023-04-15T03:10:08.156Z,497.5000
2023-04-15T03:11:12.062Z,496.5000
2023-04-15T03:12:15.945Z,495.0833
2023-04-15T03:13:19.846Z,493.4167
2023-04-15T03:14:23.716Z,493.5000
2023-04-15T03:15:27.668Z,495.0833
2023-04-15T03:16:31.535Z,495.3333
2023-04-15T03:17:35.453Z,495.8333
2023-04-15T03:18:39.319Z,497.9167
2023-04-15T03:19:43.232Z,499.5000
2023-04-15T03:20:47.184Z,499.2500
2023-04-15T03:21:51.030Z,500.5000
2023-04-15T03:22:54.921Z,503.2500
2023-04-15T03:23:58.815Z,504.0833
2023-04-15T03:25:02.710Z,501.0833
2023-04-15T03:26:06.810Z,499.8333
2023-04-15T03:27:10.710Z,497.6667
2023-04-15T03:28:14.614Z,499.2500
2023-04-15T03:29:14.979Z,500.4546
2023-04-15T03:30:18.875Z,502.2500
2023-04-15T03:31:23.062Z,502.5000
2023-04-15T03:32:27.005Z,499.4167
2023-04-15T03:33:30.842Z,501.4167
2023-04-15T03:34:34.948Z,502.0000
2023-04-15T03:35:38.836Z,501.1667
2023-04-15T03:36:42.723Z,501.3333
2023-04-15T03:37:46.597Z,503.9167
2023-04-15T03:38:50.522Z,505.3333
2023-04-15T03:39:54.400Z,503.7500
2023-04-15T03:40:58.274Z,500.8333
2023-04-15T03:42:02.337Z,499.7500
2023-04-15T03:43:06.225Z,500.1667
2023-04-15T03:44:10.498Z,500.0833
2023-04-15T03:45:14.403Z,499.5000
2023-04-15T03:46:18.330Z,497.6667
2023-04-15T03:47:22.223Z,496.9167
2023-04-15T03:48:26.087Z,495.0833
2023-04-15T03:49:30.282Z,494.6667
2023-04-15T03:50:34.170Z,496.4167
2023-04-15T03:51:38.043Z,497.7500
2023-04-15T03:52:41.958Z,497.6667
2023-04-15T03:53:45.860Z,500.3333
2023-04-15T03:54:49.749Z,502.0833
2023-04-15T03:55:53.644Z,501.5833
2023-04-15T03:56:57.528Z,502.5833
2023-04-15T03:58:01.431Z,502.0000
2023-04-15T03:59:05.336Z,503.3333
2023-04-15T04:00:09.240Z,502.7500
2023-04-15T04:01:13.144Z,503.5833
2023-04-15T04:02:17.121Z,504.8333
2023-04-15T04:03:21.235Z,505.2500
2023-04-15T04:04:25.406Z,506.8333
2023-04-15T04:05:29.280Z,507.2500
2023-04-15T04:06:33.189Z,506.5000
2023-04-15T04:07:37.065Z,508.0833
2023-04-15T04:08:40.937Z,506.4167
2023-04-15T04:09:46.630Z,505.1667
2023-04-15T04:10:45.768Z,503.7273
2023-04-15T04:11:50.412Z,504.7500
2023-04-15T04:12:54.306Z,504.8333
2023-04-15T04:13:58.187Z,503.2500
2023-04-15T04:15:02.082Z,503.1667
2023-04-15T04:16:02.301Z,500.7273
2023-04-15T04:17:06.368Z,501.0833
2023-04-15T04:18:10.289Z,501.7500
2023-04-15T04:19:14.387Z,502.3333
2023-04-15T04:20:18.260Z,503.0833
2023-04-15T04:21:22.154Z,504.6667
2023-04-15T04:22:26.039Z,505.3333
2023-04-15T04:23:29.948Z,504.1667
2023-04-15T04:24:34.053Z,506.2500
2023-04-15T04:25:37.955Z,507.8333
2023-04-15T04:26:42.055Z,506.6667
2023-04-15T04:27:45.996Z,505.0000
2023-04-15T04:28:49.870Z,502.7500
2023-04-15T04:29:53.769Z,501.0000
2023-04-15T04:30:57.659Z,501.3333
2023-04-15T04:32:01.611Z,499.1667
2023-04-15T04:33:05.583Z,499.9167
2023-04-15T04:34:09.706Z,493.7500
2023-04-15T04:35:13.596Z,495.6667
2023-04-15T04:36:17.463Z,497.8333
2023-04-15T04:37:21.362Z,495.9167
2023-04-15T04:38:25.277Z,497.0000
2023-04-15T04:39:29.373Z,495.6667
2023-04-15T04:40:33.264Z,496.1667
2023-04-15T04:41:37.131Z,496.8333
2023-04-15T04:42:41.082Z,500.0000
2023-04-15T04:43:45.189Z,500.8333
2023-04-15T04:44:49.058Z,496.5000
2023-04-15T04:45:52.969Z,496.0833
2023-04-15T04:46:57.050Z,499.7500
2023-04-15T04:48:01.042Z,497.2500
2023-04-15T04:49:05.084Z,496.7500
2023-04-15T04:50:09.001Z,499.4167
2023-04-15T04:51:12.881Z,500.9167
2023-04-15T04:52:16.783Z,500.1667
2023-04-15T04:53:20.670Z,497.2500
2023-04-15T04:54:24.584Z,494.7500
2023-04-15T04:55:28.474Z,495.0000
2023-04-15T04:56:32.358Z,495.7500
2023-04-15T04:57:36.257Z,491.2500
2023-04-15T04:58:36.628Z,490.6364
2023-04-15T04:59:40.529Z,495.5833
2023-04-15T05:00:44.422Z,495.1667
2023-04-15T05:01:48.431Z,493.6667
2023-04-15T05:02:52.609Z,494.8333
2023-04-15T05:03:56.656Z,498.5833
2023-04-15T05:05:00.641Z,496.9167
2023-04-15T05:06:04.521Z,498.7500
2023-04-15T05:07:08.457Z,499.3333
2023-04-15T05:08:12.348Z,497.6667
2023-04-15T05:09:16.428Z,491.0833
2023-04-15T05:10:20.327Z,493.5833
2023-04-15T05:11:24.220Z,492.1667
2023-04-15T05:12:28.101Z,492.7500
2023-04-15T05:13:31.977Z,493.4167
2023-04-15T05:14:35.886Z,497.0833
2023-04-15T05:15:39.879Z,496.8333
2023-04-15T05:16:43.787Z,499.1667
2023-04-15T05:17:47.750Z,502.1667
2023-04-15T05:18:51.611Z,502.0000
2023-04-15T05:19:55.522Z,500.8333
2023-04-15T05:20:59.427Z,501.9167
2023-04-15T05:22:03.306Z,500.0833
2023-04-15T05:23:07.183Z,506.0833
2023-04-15T05:24:11.077Z,505.0833
2023-04-15T05:25:14.988Z,501.6667
2023-04-15T05:26:19.146Z,501.7500
2023-04-15T05:27:23.045Z,501.3333
2023-04-15T05:28:27.183Z,500.6667
2023-04-15T05:29:31.073Z,500.5833
2023-04-15T05:30:34.975Z,501.0833
2023-04-15T05:31:38.896Z,501.2500
2023-04-15T05:32:42.777Z,501.4167
2023-04-15T05:33:46.659Z,500.2500
2023-04-15T05:34:50.559Z,500.0000
2023-04-15T05:35:54.450Z,497.6667
2023-04-15T05:36:58.363Z,498.5000
2023-04-15T05:38:02.243Z,498.8333
2023-04-15T05:39:06.155Z,498.7500
2023-04-15T05:40:10.048Z,498.8333
2023-04-15T05:41:13.913Z,497.1667
2023-04-15T05:42:17.841Z,500.7500
2023-04-15T05:43:23.268Z,498.5833
2023-04-15T05:44:27.174Z,497.7500
2023-04-15T05:45:31.058Z,497.4167
2023-04-15T05:46:35.233Z,499.0000
2023-04-15T05:47:39.154Z,497.6667
2023-04-15T05:48:43.024Z,497.5000
2023-04-15T05:49:46.916Z,499.6667
2023-04-15T05:50:50.823Z,500.4167
2023-04-15T05:51:54.736Z,499.1667
2023-04-15T05:52:58.642Z,499.6667
2023-04-15T05:54:02.747Z,499.8333
2023-04-15T05:55:06.621Z,500.5000
2023-04-15T05:56:10.754Z,500.1667
2023-04-15T05:57:14.638Z,500.3333
2023-04-15T05:58:18.532Z,498.4167
2023-04-15T05:59:22.412Z,497.8333
2023-04-15T06:00:26.293Z,497.1667
2023-04-15T06:01:30.190Z,496.8333
2023-04-15T06:02:34.126Z,498.8333
2023-04-15T06:03:38.181Z,497.0833
2023-04-15T06:04:42.116Z,495.5833
2023-04-15T06:05:45.999Z,494.7500
2023-04-15T06:06:49.910Z,495.0833
2023-04-15T06:07:53.817Z,495.8333
2023-04-15T06:08:57.720Z,497.2500
2023-04-15T06:10:01.648Z,498.0833
2023-04-15T06:11:05.755Z,498.3333
2023-04-15T06:12:09.641Z,498.3333
2023-04-15T06:13:13.858Z,498.2500
2023-04-15T06:14:17.742Z,494.8333
2023-04-15T06:15:21.641Z,494.2500
2023-04-15T06:16:25.576Z,493.9167
2023-04-15T06:17:29.436Z,495.7500
2023-04-15T06:18:33.316Z,496.0833
2023-04-15T06:19:37.215Z,498.0000
2023-04-15T06:20:41.102Z,500.1667
2023-04-15T06:21:45.016Z,501.7500
2023-04-15T06:22:48.891Z,501.6667
2023-04-15T06:23:53.023Z,502.0000
2023-04-15T06:24:56.899Z,502.3333
2023-04-15T06:26:01.116Z,503.0833
2023-04-15T06:27:05.031Z,501.7500
2023-04-15T06:28:08.917Z,500.0000
2023-04-15T06:29:12.822Z,499.5833
2023-04-15T06:30:16.703Z,499.0833
2023-04-15T06:31:17.129Z,499.5454
2023-04-15T06:32:21.050Z,499.4167
2023-04-15T06:33:24.937Z,499.1667
2023-04-15T06:34:28.807Z,499.0833
2023-04-15T06:35:32.719Z,498.7500
2023-04-15T06:36:36.605Z,497.0000
2023-04-15T06:37:40.521Z,495.9167
2023-04-15T06:38:44.393Z,497.0000
2023-04-15T06:39:48.319Z,495.3333
2023-04-15T06:40:52.401Z,493.0833
2023-04-15T06:41:56.302Z,493.4167
2023-04-15T06:43:00.179Z,492.9167
2023-04-15T06:44:04.301Z,491.3333
2023-04-15T06:45:08.205Z,489.9167
2023-04-15T06:46:12.118Z,488.5000
2023-04-15T06:47:16.071Z,488.4167
2023-04-15T06:48:19.962Z,489.5000
2023-04-15T06:49:23.833Z,491.4167
2023-04-15T06:50:27.750Z,492.1667
2023-04-15T06:51:31.628Z,491.7500
2023-04-15T06:52:35.531Z,490.9167
2023-04-15T06:53:39.412Z,491.3333
2023-04-15T06:54:43.292Z,493.0000
2023-04-15T06:55:47.173Z,494.2500
2023-04-15T06:56:51.078Z,492.0000
2023-04-15T06:57:54.988Z,492.9167
2023-04-15T06:58:58.900Z,491.5000
2023-04-15T07:00:02.750Z,493.0833
2023-04-15T07:01:06.725Z,491.4167
2023-04-15T07:02:10.670Z,493.0833
2023-04-15T07:03:14.642Z,494.3333
2023-04-15T07:04:18.588Z,493.5000
2023-04-15T07:05:22.456Z,493.8333
2023-04-15T07:06:26.340Z,492.3333
2023-04-15T07:07:30.245Z,493.0833
2023-04-15T07:08:34.165Z,493.1667
2023-04-15T07:09:38.082Z,493.8333
2023-04-15T07:10:42.210Z,493.3333
2023-04-15T07:11:46.123Z,494.0000
2023-04-15T07:12:50.016Z,495.2500
2023-04-15T07:13:53.921Z,496.8333
2023-04-15T07:14:57.805Z,496.8333
2023-04-15T07:16:01.919Z,496.2500
2023-04-15T07:17:05.861Z,495.4167
2023-04-15T07:18:10.029Z,495.5000
2023-04-15T07:19:13.906Z,496.7500
2023-04-15T07:20:17.809Z,497.2500
2023-04-15T07:21:21.721Z,496.5833
2023-04-15T07:22:25.600Z,494.3333
2023-04-15T07:23:29.516Z,492.8333
2023-04-15T07:24:33.376Z,492.4167
2023-04-15T07:25:37.490Z,492.8333
2023-04-15T07:26:41.377Z,494.0000
2023-04-15T07:27:45.277Z,493.4167
2023-04-15T07:28:49.502Z,494.6667
2023-04-15T07:29:53.388Z,494.5833
2023-04-15T07:30:57.313Z,496.8333
2023-04-15T07:32:01.202Z,498.0000
2023-04-15T07:33:05.426Z,499.0000
2023-04-15T07:34:09.294Z,501.2500
2023-04-15T07:35:13.172Z,503.0000
2023-04-15T07:36:17.070Z,503.4167
2023-04-15T07:37:20.959Z,503.0833
2023-04-15T07:38:24.853Z,503.8333
2023-04-15T07:39:28.816Z,505.7500
2023-04-15T07:40:32.676Z,506.0833
2023-04-15T07:41:36.616Z,507.5000
2023-04-15T07:42:41.523Z,505.5000
2023-04-15T07:43:45.654Z,503.6667
2023-04-15T07:44:49.525Z,500.0000
2023-04-15T07:45:53.436Z,499.6667
2023-04-15T07:46:57.293Z,498.9167
2023-04-15T07:48:01.470Z,499.7500
2023-04-15T07:49:05.343Z,498.7500
2023-04-15T07:50:09.230Z,499.5000
2023-04-15T07:51:13.175Z,500.8333
2023-04-15T07:52:17.075Z,502.7500
2023-04-15T07:53:20.973Z,504.3333
2023-04-15T07:54:24.869Z,504.0000
2023-04-15T07:55:28.761Z,503.4167
2023-04-15T07:56:32.675Z,507.4167
2023-04-15T07:57:36.542Z,508.7500
2023-04-15T07:58:40.465Z,507.1667
2023-04-15T07:59:44.324Z,503.8333
2023-04-15T08:00:48.482Z,502.2500
2023-04-15T08:01:52.405Z,501.1667
2023-04-15T08:02:56.675Z,499.9167
2023-04-15T08:04:00.783Z,500.1667
2023-04-15T08:05:04.795Z,502.8333
2023-04-15T08:06:08.720Z,503.3333
2023-04-15T08:07:12.610Z,503.7500
2023-04-15T08:08:16.524Z,505.0833
2023-04-15T08:09:20.412Z,506.3333
2023-04-15T08:10:24.424Z,507.2500
2023-04-15T08:11:28.304Z,507.4167
2023-04-15T08:12:32.236Z,505.9167
2023-04-15T08:13:36.124Z,504.6667
2023-04-15T08:14:40.030Z,503.2500
2023-04-15T08:15:43.939Z,504.5833
2023-04-15T08:16:47.833Z,506.1667
2023-04-15T08:17:51.743Z,504.9167
2023-04-15T08:18:55.634Z,504.0833
2023-04-15T08:19:59.516Z,505.4167
2023-04-15T08:21:03.418Z,506.5833
2023-04-15T08:22:10.934Z,507.6667
2023-04-15T08:23:11.794Z,505.7273
2023-04-15T08:24:15.701Z,504.3333
2023-04-15T08:25:19.856Z,506.3333
2023-04-15T08:26:23.733Z,506.0000
2023-04-15T08:27:27.628Z,506.5000
2023-04-15T08:28:31.725Z,506.6667
2023-04-15T08:29:35.612Z,510.4167
2023-04-15T08:30:39.520Z,511.8333
2023-04-15T08:31:43.422Z,512.5000
2023-04-15T08:32:47.590Z,512.0833
2023-04-15T08:33:51.581Z,511.0000
2023-04-15T08:34:55.497Z,510.4167
2023-04-15T08:35:59.381Z,511.1667
2023-04-15T08:37:03.293Z,507.1667
2023-04-15T08:38:07.199Z,504.7500
2023-04-15T08:39:11.114Z,503.0833
2023-04-15T08:40:15.211Z,504.3333
2023-04-15T08:41:19.094Z,505.0833
2023-04-15T08:42:22.980Z,503.7500
2023-04-15T08:43:27.178Z,506.2500
2023-04-15T08:44:31.061Z,503.2500
2023-04-15T08:45:34.964Z,501.1667
2023-04-15T08:46:38.866Z,504.2500
2023-04-15T08:47:42.760Z,504.6667
2023-04-15T08:48:46.643Z,504.3333
2023-04-15T08:49:50.528Z,503.1667
2023-04-15T08:50:54.404Z,503.3333
2023-04-15T08:51:58.310Z,503.5000
2023-04-15T08:53:02.232Z,504.7500
2023-04-15T08:54:06.159Z,505.8333
2023-04-15T08:55:10.657Z,503.8333
2023-04-15T08:56:14.550Z,505.6667
2023-04-15T08:57:18.440Z,506.0000
2023-04-15T08:58:22.573Z,504.6667
2023-04-15T08:59:26.482Z,503.1667
2023-04-15T09:00:30.373Z,501.5833
2023-04-15T09:01:34.376Z,503.0833
2023-04-15T09:02:38.344Z,502.0000
2023-04-15T09:03:42.447Z,502.5000
2023-04-15T09:04:46.369Z,502.1667
2023-04-15T09:05:52.705Z,504.6667
2023-04-15T09:06:51.791Z,504.8182
2023-04-15T09:07:55.715Z,506.1667
2023-04-15T09:08:59.629Z,509.6667
2023-04-15T09:10:03.784Z,511.2500
2023-04-15T09:11:07.701Z,512.5000
2023-04-15T09:12:11.625Z,513.3333
2023-04-15T09:13:15.738Z,514.8333
2023-04-15T09:14:19.648Z,518.7500
2023-04-15T09:15:23.552Z,519.5000
2023-04-15T09:16:27.501Z,520.8333
2023-04-15T09:17:31.446Z,520.6667
2023-04-15T09:18:35.341Z,520.0833
2023-04-15T09:19:39.280Z,520.7500
2023-04-15T09:20:43.144Z,521.0000
2023-04-15T09:21:47.049Z,520.0833
2023-04-15T09:22:50.945Z,516.7500
2023-04-15T09:23:54.853Z,516.1667
2023-04-15T09:24:58.858Z,519.2500
2023-04-15T09:26:02.748Z,519.0833
2023-04-15T09:27:06.631Z,515.8333
2023-04-15T09:28:10.557Z,521.0833
2023-04-15T09:29:14.398Z,525.1667
2023-04-15T09:30:18.302Z,523.7500
2023-04-15T09:31:22.244Z,523.9167
2023-04-15T09:32:26.562Z,524.9167
2023-04-15T09:33:30.447Z,526.7500
2023-04-15T09:34:34.351Z,528.9167
2023-04-15T09:35:38.271Z,528.1667
2023-04-15T09:36:42.154Z,528.9167
2023-04-15T09:37:46.057Z,529.5000
2023-04-15T09:38:49.943Z,527.6667
2023-04-15T09:39:53.854Z,527.9167
2023-04-15T09:40:57.751Z,527.0833
2023-04-15T09:42:01.725Z,526.7500
2023-04-15T09:43:05.852Z,524.0833
2023-04-15T09:44:09.736Z,525.0000
2023-04-15T09:45:13.860Z,525.8333
2023-04-15T09:46:17.780Z,526.4167
2023-04-15T09:47:21.709Z,526.0833
2023-04-15T09:48:25.571Z,525.4167
2023-04-15T09:49:29.522Z,522.5000
2023-04-15T09:50:33.419Z,524.8333
2023-04-15T09:51:37.323Z,529.3333
2023-04-15T09:52:41.243Z,530.2500
2023-04-15T09:53:45.137Z,527.0000
2023-04-15T09:54:49.200Z,524.8333
2023-04-15T09:55:53.114Z,526.0833
2023-04-15T09:56:57.017Z,518.2500
2023-04-15T09:58:00.913Z,522.0000
2023-04-15T09:59:04.820Z,521.2500
2023-04-15T10:00:08.721Z,519.4167
2023-04-15T10:01:12.613Z,517.5833
2023-04-15T10:02:16.626Z,517.0000
2023-04-15T10:03:20.763Z,517.1667
2023-04-15T10:04:25.021Z,516.3333
2023-04-15T10:05:29.831Z,522.0833
2023-04-15T10:06:34.126Z,525.6667
2023-04-15T10:07:38.040Z,527.3333
2023-04-15T10:08:41.952Z,528.0000
2023-04-15T10:09:46.034Z,527.8333
2023-04-15T10:10:49.948Z,525.7500
2023-04-15T10:11:54.112Z,522.4167
2023-04-15T10:12:58.018Z,520.3333
2023-04-15T10:14:02.344Z,517.9167
2023-04-15T10:15:06.366Z,519.4167
2023-04-15T10:16:10.331Z,522.6667
2023-04-15T10:17:14.254Z,521.1667
2023-04-15T10:18:18.152Z,519.3333
2023-04-15T10:19:22.295Z,515.5000
2023-04-15T10:20:26.209Z,515.5000
2023-04-15T10:21:30.086Z,519.0000
2023-04-15T10:22:33.991Z,522.0833
2023-04-15T10:23:37.887Z,519.0833
2023-04-15T10:24:41.787Z,522.1667
2023-04-15T10:25:45.684Z,521.4167
2023-04-15T10:26:49.618Z,523.3333
2023-04-15T10:27:53.480Z,524.1667
2023-04-15T10:28:58.414Z,535.5000
2023-04-15T10:29:58.126Z,527.1818
2023-04-15T10:31:02.048Z,522.0000
2023-04-15T10:32:05.945Z,526.0000
2023-04-15T10:33:09.826Z,526.3333
2023-04-15T10:34:14.015Z,523.9167
2023-04-15T10:35:17.912Z,518.9167
2023-04-15T10:36:21.796Z,519.2500
2023-04-15T10:37:25.668Z,514.7500
2023-04-15T10:38:29.579Z,515.5833
2023-04-15T10:39:33.464Z,521.0833
2023-04-15T10:40:37.354Z,519.5833
2023-04-15T10:41:41.363Z,518.5833
2023-04-15T10:42:45.270Z,515.8333
2023-04-15T10:43:49.160Z,514.6667
2023-04-15T10:44:53.069Z,517.4167
2023-04-15T10:45:56.954Z,512.5000
2023-04-15T10:47:00.954Z,512.4167
2023-04-15T10:48:04.865Z,512.2500
2023-04-15T10:49:08.750Z,515.0000
2023-04-15T10:50:12.909Z,516.5833
2023-04-15T10:51:16.809Z,515.7500
2023-04-15T10:52:20.710Z,517.4167
2023-04-15T10:53:24.598Z,514.2500
2023-04-15T10:54:28.494Z,514.8333
2023-04-15T10:55:32.514Z,515.7500
2023-04-15T10:56:36.676Z,515.1667
2023-04-15T10:57:40.526Z,515.0000
2023-04-15T10:58:44.457Z,512.7500
2023-04-15T10:59:48.564Z,510.4167
2023-04-15T11:00:52.452Z,511.3333
2023-04-15T11:01:56.738Z,511.8333
2023-04-15T11:03:00.971Z,511.3333
2023-04-15T11:04:05.163Z,507.2500
2023-04-15T11:05:09.218Z,509.4167
2023-04-15T11:06:13.112Z,509.1667
2023-04-15T11:07:17.002Z,508.6667
2023-04-15T11:08:20.914Z,508.4167
2023-04-15T11:09:24.765Z,509.1667
2023-04-15T11:10:28.640Z,508.7500
2023-04-15T11:11:32.767Z,508.4167
2023-04-15T11:12:36.696Z,507.3333
2023-04-15T11:13:40.560Z,508.1667
2023-04-15T11:14:44.684Z,513.3333
2023-04-15T11:15:48.561Z,514.5000
2023-04-15T11:16:52.490Z,514.6667
2023-04-15T11:17:56.428Z,530.9167
2023-04-15T11:19:00.376Z,522.5833
2023-04-15T11:20:04.507Z,521.1667
2023-04-15T11:21:08.395Z,515.4167
2023-04-15T11:22:12.286Z,514.5833
2023-04-15T11:23:16.221Z,514.0000
2023-04-15T11:24:20.095Z,514.2500
2023-04-15T11:25:24.228Z,517.1667
2023-04-15T11:26:28.368Z,519.8333
2023-04-15T11:27:32.236Z,517.4167
2023-04-15T11:28:36.806Z,519.4167
2023-04-15T11:29:36.294Z,516.1818
2023-04-15T11:30:40.236Z,517.1667
2023-04-15T11:31:44.137Z,515.7500
2023-04-15T11:32:48.051Z,513.8333
2023-04-15T11:33:51.958Z,512.6667
2023-04-15T11:34:55.845Z,514.0000
2023-04-15T11:35:59.742Z,518.2500
2023-04-15T11:37:03.629Z,516.2500
2023-04-15T11:38:07.523Z,519.6667
2023-04-15T11:39:11.456Z,516.8333
2023-04-15T11:40:15.391Z,514.5000
2023-04-15T11:41:19.237Z,518.0000
2023-04-15T11:42:23.437Z,520.5000
2023-04-15T11:43:27.329Z,517.0833
2023-04-15T11:44:31.468Z,518.5833
2023-04-15T11:45:35.390Z,520.9167
2023-04-15T11:46:39.252Z,517.4167
2023-04-15T11:47:43.192Z,517.3333
2023-04-15T11:48:47.106Z,511.5833
2023-04-15T11:49:50.993Z,512.1667
2023-04-15T11:50:54.904Z,515.6667
2023-04-15T11:51:58.798Z,515.6667
2023-04-15T11:53:02.707Z,517.5000
2023-04-15T11:54:06.720Z,520.1667
2023-04-15T11:55:10.742Z,522.7500
2023-04-15T11:56:14.622Z,520.5833
2023-04-15T11:57:18.756Z,517.6667
2023-04-15T11:58:22.662Z,514.5000
2023-04-15T11:59:38.948Z,513.2500
2023-04-15T12:00:31.255Z,512.6364
2023-04-15T12:01:35.217Z,512.6667
2023-04-15T12:02:39.227Z,509.7500
2023-04-15T12:03:43.276Z,511.9167
2023-04-15T12:04:47.556Z,508.2500
2023-04-15T12:05:51.426Z,505.7500
2023-04-15T12:06:55.338Z,507.5000
2023-04-15T12:07:59.230Z,505.8333
2023-04-15T12:09:03.474Z,507.5833
2023-04-15T12:10:07.348Z,507.0000
2023-04-15T12:11:11.226Z,507.4167
2023-04-15T12:12:15.361Z,509.9167
2023-04-15T12:13:19.244Z,511.3333
2023-04-15T12:14:23.149Z,509.5833
2023-04-15T12:15:27.034Z,510.8333
2023-04-15T12:16:30.933Z,509.3333
2023-04-15T12:17:52.153Z,509.5000
2023-04-15T12:18:39.310Z,511.9091
2023-04-15T12:19:43.420Z,513.2500
2023-04-15T12:20:47.299Z,512.5000
2023-04-15T12:21:51.202Z,510.5833
2023-04-15T12:22:55.086Z,508.9167
2023-04-15T12:23:59.305Z,511.0000
2023-04-15T12:25:03.203Z,511.0000
2023-04-15T12:26:07.087Z,512.5833
2023-04-15T12:27:11.302Z,517.9167
2023-04-15T12:28:15.189Z,519.7500
2023-04-15T12:29:19.139Z,516.9167
2023-04-15T12:30:22.983Z,512.9167